sensor_id;sensor_type;location;lat;lon;timestamp;temperature;humidity
5280;DHT22;2663;53.588;10.010;2024-02-23T00:01:07;10.90;99.90
5280;DHT22;2663;53.588;10.010;2024-02-23T00:03:34;10.90;99.90
5280;DHT22;2663;53.588;10.010;2024-02-23T00:06:03;10.90;99.90
5280;DHT22;2663;53.588;10.010;2024-02-23T00:08:29;10.90;99.90
5280;DHT22;2663;53.588;10.010;2024-02-23T00:10:56;10.90;99.90
5280;DHT22;2663;53.588;10.010;2024-02-23T00:13:23;10.90;99.90
5280;DHT22;2663;53.588;10.010;2024-02-23T00:15:50;10.80;99.90
5280;DHT22;2663;53.588;10.010;2024-02-23T00:18:17;10.70;99.90
5280;DHT22;2663;53.588;10.010;2024-02-23T00:20:44;10.70;99.90
5280;DHT22;2663;53.588;10.010;2024-02-23T00:23:11;10.60;99.90
5280;DHT22;2663;53.588;10.010;2024-02-23T00:25:37;10.60;99.90
5280;DHT22;2663;53.588;10.010;2024-02-23T00:28:05;10.60;99.90
5280;DHT22;2663;53.588;10.010;2024-02-23T00:30:31;10.60;99.90
5280;DHT22;2663;53.588;10.010;2024-02-23T00:32:58;10.60;99.90
5280;DHT22;2663;53.588;10.010;2024-02-23T00:35:25;10.60;99.90
5280;DHT22;2663;53.588;10.010;2024-02-23T00:37:52;10.60;99.90
5280;DHT22;2663;53.588;10.010;2024-02-23T00:40:18;10.50;99.90
5280;DHT22;2663;53.588;10.010;2024-02-23T00:42:45;10.50;99.90
5280;DHT22;2663;53.588;10.010;2024-02-23T00:45:12;10.50;99.90
5280;DHT22;2663;53.588;10.010;2024-02-23T00:47:39;10.50;99.90
5280;DHT22;2663;53.588;10.010;2024-02-23T00:50:06;10.50;99.90
5280;DHT22;2663;53.588;10.010;2024-02-23T00:52:33;10.40;99.90
5280;DHT22;2663;53.588;10.010;2024-02-23T00:55:00;10.20;99.90
5280;DHT22;2663;53.588;10.010;2024-02-23T00:57:27;9.50;99.90
5280;DHT22;2663;53.588;10.010;2024-02-23T00:59:57;9.10;99.90
5280;DHT22;2663;53.588;10.010;2024-02-23T01:02:24;8.90;99.90
5280;DHT22;2663;53.588;10.010;2024-02-23T01:04:51;8.60;99.90
5280;DHT22;2663;53.588;10.010;2024-02-23T01:07:18;8.70;99.90
5280;DHT22;2663;53.588;10.010;2024-02-23T01:09:45;8.60;99.90
5280;DHT22;2663;53.588;10.010;2024-02-23T01:12:11;8.60;99.90
5280;DHT22;2663;53.588;10.010;2024-02-23T01:14:38;8.70;99.90
5280;DHT22;2663;53.588;10.010;2024-02-23T01:17:05;8.60;99.90
5280;DHT22;2663;53.588;10.010;2024-02-23T01:19:32;8.60;99.90
5280;DHT22;2663;53.588;10.010;2024-02-23T01:21:58;8.50;99.90
5280;DHT22;2663;53.588;10.010;2024-02-23T01:24:28;7.70;99.90
5280;DHT22;2663;53.588;10.010;2024-02-23T01:26:56;8.60;99.90
5280;DHT22;2663;53.588;10.010;2024-02-23T01:29:25;8.50;99.90
5280;DHT22;2663;53.588;10.010;2024-02-23T01:31:53;8.60;99.90
5280;DHT22;2663;53.588;10.010;2024-02-23T01:34:21;8.50;99.90
5280;DHT22;2663;53.588;10.010;2024-02-23T01:36:48;6.30;99.90
5280;DHT22;2663;53.588;10.010;2024-02-23T01:39:15;8.50;99.90
5280;DHT22;2663;53.588;10.010;2024-02-23T01:41:42;8.50;99.90
5280;DHT22;2663;53.588;10.010;2024-02-23T01:44:11;8.50;99.90
5280;DHT22;2663;53.588;10.010;2024-02-23T01:46:38;8.50;99.90
5280;DHT22;2663;53.588;10.010;2024-02-23T01:49:07;8.50;99.90
5280;DHT22;2663;53.588;10.010;2024-02-23T01:51:35;8.40;99.90
5280;DHT22;2663;53.588;10.010;2024-02-23T01:54:02;8.50;99.90
5280;DHT22;2663;53.588;10.010;2024-02-23T01:56:31;8.40;99.90
5280;DHT22;2663;53.588;10.010;2024-02-23T01:58:59;8.50;99.90
5280;DHT22;2663;53.588;10.010;2024-02-23T02:01:26;8.50;99.90
5280;DHT22;2663;53.588;10.010;2024-02-23T02:03:53;8.50;99.90
5280;DHT22;2663;53.588;10.010;2024-02-23T02:06:20;8.40;99.90
5280;DHT22;2663;53.588;10.010;2024-02-23T02:08:47;8.40;99.90
5280;DHT22;2663;53.588;10.010;2024-02-23T02:11:14;8.40;99.90
5280;DHT22;2663;53.588;10.010;2024-02-23T02:13:41;8.30;99.90
5280;DHT22;2663;53.588;10.010;2024-02-23T02:16:08;8.30;99.90
5280;DHT22;2663;53.588;10.010;2024-02-23T02:18:36;8.20;99.90
5280;DHT22;2663;53.588;10.010;2024-02-23T02:21:02;8.10;99.90
5280;DHT22;2663;53.588;10.010;2024-02-23T02:23:29;6.40;99.90
5280;DHT22;2663;53.588;10.010;2024-02-23T02:25:57;8.00;99.90
5280;DHT22;2663;53.588;10.010;2024-02-23T02:28:25;8.00;99.90
5280;DHT22;2663;53.588;10.010;2024-02-23T02:30:52;8.00;99.90
5280;DHT22;2663;53.588;10.010;2024-02-23T02:33:19;7.90;99.90
5280;DHT22;2663;53.588;10.010;2024-02-23T02:35:47;7.90;99.90
5280;DHT22;2663;53.588;10.010;2024-02-23T02:38:13;8.00;99.90
5280;DHT22;2663;53.588;10.010;2024-02-23T02:40:40;7.80;99.90
5280;DHT22;2663;53.588;10.010;2024-02-23T02:43:07;7.90;99.90
5280;DHT22;2663;53.588;10.010;2024-02-23T02:45:34;7.90;99.90
5280;DHT22;2663;53.588;10.010;2024-02-23T02:48:01;7.80;99.90
5280;DHT22;2663;53.588;10.010;2024-02-23T02:50:28;7.80;99.90
5280;DHT22;2663;53.588;10.010;2024-02-23T02:52:55;5.90;99.90
5280;DHT22;2663;53.588;10.010;2024-02-23T02:55:22;7.60;99.90
5280;DHT22;2663;53.588;10.010;2024-02-23T02:57:49;7.60;99.90
5280;DHT22;2663;53.588;10.010;2024-02-23T03:00:16;7.50;99.90
5280;DHT22;2663;53.588;10.010;2024-02-23T03:02:42;7.50;99.90
5280;DHT22;2663;53.588;10.010;2024-02-23T03:05:09;7.50;99.90
5280;DHT22;2663;53.588;10.010;2024-02-23T03:07:36;7.50;99.90
5280;DHT22;2663;53.588;10.010;2024-02-23T03:10:03;7.50;99.90
5280;DHT22;2663;53.588;10.010;2024-02-23T03:12:31;7.40;99.90
5280;DHT22;2663;53.588;10.010;2024-02-23T03:14:58;7.60;99.90
5280;DHT22;2663;53.588;10.010;2024-02-23T03:17:24;7.50;99.90
5280;DHT22;2663;53.588;10.010;2024-02-23T03:19:52;7.50;99.90
5280;DHT22;2663;53.588;10.010;2024-02-23T03:22:19;7.50;99.90
5280;DHT22;2663;53.588;10.010;2024-02-23T03:24:45;7.40;99.90
5280;DHT22;2663;53.588;10.010;2024-02-23T03:27:12;7.40;99.90
5280;DHT22;2663;53.588;10.010;2024-02-23T03:29:39;7.30;99.90
5280;DHT22;2663;53.588;10.010;2024-02-23T03:32:07;7.20;99.90
5280;DHT22;2663;53.588;10.010;2024-02-23T03:34:35;7.30;99.90
5280;DHT22;2663;53.588;10.010;2024-02-23T03:37:01;7.30;99.90
5280;DHT22;2663;53.588;10.010;2024-02-23T03:39:29;7.20;99.90
5280;DHT22;2663;53.588;10.010;2024-02-23T03:41:56;7.20;99.90
5280;DHT22;2663;53.588;10.010;2024-02-23T03:44:23;7.20;99.90
5280;DHT22;2663;53.588;10.010;2024-02-23T03:46:50;7.20;99.90
5280;DHT22;2663;53.588;10.010;2024-02-23T03:49:17;7.10;99.90
5280;DHT22;2663;53.588;10.010;2024-02-23T03:51:44;7.10;99.90
5280;DHT22;2663;53.588;10.010;2024-02-23T03:54:11;7.00;99.90
5280;DHT22;2663;53.588;10.010;2024-02-23T03:56:42;7.10;99.90
5280;DHT22;2663;53.588;10.010;2024-02-23T03:59:09;7.00;99.90
5280;DHT22;2663;53.588;10.010;2024-02-23T04:01:39;7.00;99.90
5280;DHT22;2663;53.588;10.010;2024-02-23T04:04:06;6.90;99.90
5280;DHT22;2663;53.588;10.010;2024-02-23T04:06:34;7.00;99.90
5280;DHT22;2663;53.588;10.010;2024-02-23T04:09:01;6.90;99.90
5280;DHT22;2663;53.588;10.010;2024-02-23T04:11:31;7.10;99.90
5280;DHT22;2663;53.588;10.010;2024-02-23T04:13:58;6.90;99.90
5280;DHT22;2663;53.588;10.010;2024-02-23T04:16:25;6.90;99.90
5280;DHT22;2663;53.588;10.010;2024-02-23T04:18:53;6.90;99.90
5280;DHT22;2663;53.588;10.010;2024-02-23T04:21:20;7.70;99.90
5280;DHT22;2663;53.588;10.010;2024-02-23T04:23:47;6.90;99.90
5280;DHT22;2663;53.588;10.010;2024-02-23T04:26:14;6.90;99.90
5280;DHT22;2663;53.588;10.010;2024-02-23T04:28:41;7.00;99.90
5280;DHT22;2663;53.588;10.010;2024-02-23T04:31:08;7.00;99.90
5280;DHT22;2663;53.588;10.010;2024-02-23T04:33:36;8.70;99.90
5280;DHT22;2663;53.588;10.010;2024-02-23T04:36:04;7.00;99.90
5280;DHT22;2663;53.588;10.010;2024-02-23T04:38:31;7.00;99.90
5280;DHT22;2663;53.588;10.010;2024-02-23T04:40:58;7.00;99.90
5280;DHT22;2663;53.588;10.010;2024-02-23T04:43:28;7.10;99.90
5280;DHT22;2663;53.588;10.010;2024-02-23T04:45:55;7.10;99.90
5280;DHT22;2663;53.588;10.010;2024-02-23T04:48:22;7.10;99.90
5280;DHT22;2663;53.588;10.010;2024-02-23T04:50:49;7.00;99.90
5280;DHT22;2663;53.588;10.010;2024-02-23T04:53:15;7.00;99.90
5280;DHT22;2663;53.588;10.010;2024-02-23T04:55:42;6.90;99.90
5280;DHT22;2663;53.588;10.010;2024-02-23T04:58:09;6.90;99.90
5280;DHT22;2663;53.588;10.010;2024-02-23T05:00:38;6.90;99.90
5280;DHT22;2663;53.588;10.010;2024-02-23T05:03:05;6.90;99.90
5280;DHT22;2663;53.588;10.010;2024-02-23T05:05:35;7.00;99.90
5280;DHT22;2663;53.588;10.010;2024-02-23T05:08:03;6.90;99.90
5280;DHT22;2663;53.588;10.010;2024-02-23T05:10:29;6.90;99.90
5280;DHT22;2663;53.588;10.010;2024-02-23T05:12:56;7.00;99.90
5280;DHT22;2663;53.588;10.010;2024-02-23T05:15:23;7.00;99.90
5280;DHT22;2663;53.588;10.010;2024-02-23T05:17:49;6.90;99.90
5280;DHT22;2663;53.588;10.010;2024-02-23T05:20:16;6.90;99.90
5280;DHT22;2663;53.588;10.010;2024-02-23T05:22:43;7.00;99.90
5280;DHT22;2663;53.588;10.010;2024-02-23T05:25:10;6.90;99.90
5280;DHT22;2663;53.588;10.010;2024-02-23T05:27:36;6.90;99.90
5280;DHT22;2663;53.588;10.010;2024-02-23T05:30:03;6.90;99.90
5280;DHT22;2663;53.588;10.010;2024-02-23T05:32:30;6.90;99.90
5280;DHT22;2663;53.588;10.010;2024-02-23T05:34:57;6.80;99.90
5280;DHT22;2663;53.588;10.010;2024-02-23T05:37:24;6.80;99.90
5280;DHT22;2663;53.588;10.010;2024-02-23T05:39:51;6.80;99.90
5280;DHT22;2663;53.588;10.010;2024-02-23T05:42:18;6.80;99.90
5280;DHT22;2663;53.588;10.010;2024-02-23T05:44:46;6.70;99.90
5280;DHT22;2663;53.588;10.010;2024-02-23T05:47:12;6.90;99.90
5280;DHT22;2663;53.588;10.010;2024-02-23T05:49:41;6.90;99.90
5280;DHT22;2663;53.588;10.010;2024-02-23T05:52:07;6.90;99.90
5280;DHT22;2663;53.588;10.010;2024-02-23T05:54:34;6.90;99.90
5280;DHT22;2663;53.588;10.010;2024-02-23T05:57:01;6.90;99.90
5280;DHT22;2663;53.588;10.010;2024-02-23T05:59:29;6.90;99.90
5280;DHT22;2663;53.588;10.010;2024-02-23T06:01:56;6.90;99.90
5280;DHT22;2663;53.588;10.010;2024-02-23T06:04:25;7.00;99.90
5280;DHT22;2663;53.588;10.010;2024-02-23T06:06:53;6.90;99.90
5280;DHT22;2663;53.588;10.010;2024-02-23T06:09:21;6.80;99.90
5280;DHT22;2663;53.588;10.010;2024-02-23T06:11:48;6.80;99.90
5280;DHT22;2663;53.588;10.010;2024-02-23T06:14:15;6.80;99.90
5280;DHT22;2663;53.588;10.010;2024-02-23T06:16:41;6.90;99.90
5280;DHT22;2663;53.588;10.010;2024-02-23T06:19:08;6.90;99.90
5280;DHT22;2663;53.588;10.010;2024-02-23T06:21:35;6.90;99.90
5280;DHT22;2663;53.588;10.010;2024-02-23T06:24:03;6.90;99.90
5280;DHT22;2663;53.588;10.010;2024-02-23T06:26:31;6.80;99.90
5280;DHT22;2663;53.588;10.010;2024-02-23T06:28:58;6.80;99.90
5280;DHT22;2663;53.588;10.010;2024-02-23T06:31:25;6.90;99.90
5280;DHT22;2663;53.588;10.010;2024-02-23T06:33:52;6.50;99.90
5280;DHT22;2663;53.588;10.010;2024-02-23T06:36:19;7.50;99.90
5280;DHT22;2663;53.588;10.010;2024-02-23T06:38:46;7.20;99.90
5280;DHT22;2663;53.588;10.010;2024-02-23T06:41:12;6.90;99.90
5280;DHT22;2663;53.588;10.010;2024-02-23T06:43:39;6.80;99.90
5280;DHT22;2663;53.588;10.010;2024-02-23T06:46:07;6.80;99.90
5280;DHT22;2663;53.588;10.010;2024-02-23T06:48:35;6.80;99.90
5280;DHT22;2663;53.588;10.010;2024-02-23T06:51:03;6.80;99.90
5280;DHT22;2663;53.588;10.010;2024-02-23T06:53:30;6.80;99.90
5280;DHT22;2663;53.588;10.010;2024-02-23T06:55:58;6.70;99.90
5280;DHT22;2663;53.588;10.010;2024-02-23T06:58:26;8.20;99.90
5280;DHT22;2663;53.588;10.010;2024-02-23T07:00:52;8.80;99.90
5280;DHT22;2663;53.588;10.010;2024-02-23T07:03:19;8.20;99.90
5280;DHT22;2663;53.588;10.010;2024-02-23T07:05:46;7.50;99.90
5280;DHT22;2663;53.588;10.010;2024-02-23T07:08:14;7.00;99.90
5280;DHT22;2663;53.588;10.010;2024-02-23T07:10:41;6.90;99.90
5280;DHT22;2663;53.588;10.010;2024-02-23T07:13:08;6.80;99.90
5280;DHT22;2663;53.588;10.010;2024-02-23T07:15:35;6.70;99.90
5280;DHT22;2663;53.588;10.010;2024-02-23T07:18:05;6.80;99.90
5280;DHT22;2663;53.588;10.010;2024-02-23T07:20:32;6.80;99.90
5280;DHT22;2663;53.588;10.010;2024-02-23T07:22:59;6.90;99.90
5280;DHT22;2663;53.588;10.010;2024-02-23T07:25:25;6.80;99.90
5280;DHT22;2663;53.588;10.010;2024-02-23T07:27:52;6.80;99.90
5280;DHT22;2663;53.588;10.010;2024-02-23T07:30:19;6.80;99.90
5280;DHT22;2663;53.588;10.010;2024-02-23T07:32:46;6.80;99.90
5280;DHT22;2663;53.588;10.010;2024-02-23T07:35:19;6.70;99.90
5280;DHT22;2663;53.588;10.010;2024-02-23T07:37:46;8.50;99.90
5280;DHT22;2663;53.588;10.010;2024-02-23T07:40:13;6.80;99.90
5280;DHT22;2663;53.588;10.010;2024-02-23T07:42:42;6.80;99.90
5280;DHT22;2663;53.588;10.010;2024-02-23T07:45:09;6.80;99.90
5280;DHT22;2663;53.588;10.010;2024-02-23T07:47:36;6.80;99.90
5280;DHT22;2663;53.588;10.010;2024-02-23T07:50:04;6.80;99.90
5280;DHT22;2663;53.588;10.010;2024-02-23T07:52:31;6.80;99.90
5280;DHT22;2663;53.588;10.010;2024-02-23T07:54:58;6.80;99.90
5280;DHT22;2663;53.588;10.010;2024-02-23T07:57:26;6.80;99.90
5280;DHT22;2663;53.588;10.010;2024-02-23T07:59:53;6.90;99.90
5280;DHT22;2663;53.588;10.010;2024-02-23T08:02:20;7.90;99.90
5280;DHT22;2663;53.588;10.010;2024-02-23T08:04:47;7.00;99.90
5280;DHT22;2663;53.588;10.010;2024-02-23T08:07:15;7.00;99.90
5280;DHT22;2663;53.588;10.010;2024-02-23T08:09:41;7.10;99.90
5280;DHT22;2663;53.588;10.010;2024-02-23T08:12:08;7.30;99.90
5280;DHT22;2663;53.588;10.010;2024-02-23T08:14:35;7.20;99.90
5280;DHT22;2663;53.588;10.010;2024-02-23T08:17:02;7.20;99.90
5280;DHT22;2663;53.588;10.010;2024-02-23T08:19:29;7.30;99.90
5280;DHT22;2663;53.588;10.010;2024-02-23T08:21:56;7.30;99.90
5280;DHT22;2663;53.588;10.010;2024-02-23T08:24:24;7.30;99.90
5280;DHT22;2663;53.588;10.010;2024-02-23T08:26:53;7.40;99.90
5280;DHT22;2663;53.588;10.010;2024-02-23T08:29:20;7.50;99.90
5280;DHT22;2663;53.588;10.010;2024-02-23T08:31:47;7.50;99.90
5280;DHT22;2663;53.588;10.010;2024-02-23T08:34:14;7.60;99.90
5280;DHT22;2663;53.588;10.010;2024-02-23T08:36:41;7.50;99.90
5280;DHT22;2663;53.588;10.010;2024-02-23T08:39:07;7.60;99.90
5280;DHT22;2663;53.588;10.010;2024-02-23T08:41:35;7.60;99.90
5280;DHT22;2663;53.588;10.010;2024-02-23T08:44:02;7.80;99.90
5280;DHT22;2663;53.588;10.010;2024-02-23T08:46:29;7.60;99.90
5280;DHT22;2663;53.588;10.010;2024-02-23T08:48:56;7.70;99.90
5280;DHT22;2663;53.588;10.010;2024-02-23T08:51:23;7.90;99.90
5280;DHT22;2663;53.588;10.010;2024-02-23T08:53:49;7.90;99.90
5280;DHT22;2663;53.588;10.010;2024-02-23T08:56:16;7.90;99.90
5280;DHT22;2663;53.588;10.010;2024-02-23T08:58:43;7.90;99.90
5280;DHT22;2663;53.588;10.010;2024-02-23T09:01:09;7.90;99.90
5280;DHT22;2663;53.588;10.010;2024-02-23T09:03:36;7.80;99.90
5280;DHT22;2663;53.588;10.010;2024-02-23T09:06:03;7.90;99.90
5280;DHT22;2663;53.588;10.010;2024-02-23T09:08:31;7.90;99.90
5280;DHT22;2663;53.588;10.010;2024-02-23T09:10:58;8.10;99.90
5280;DHT22;2663;53.588;10.010;2024-02-23T09:13:24;8.00;99.90
5280;DHT22;2663;53.588;10.010;2024-02-23T09:15:53;8.10;99.90
5280;DHT22;2663;53.588;10.010;2024-02-23T09:18:19;7.90;99.90
5280;DHT22;2663;53.588;10.010;2024-02-23T09:20:47;7.90;99.90
5280;DHT22;2663;53.588;10.010;2024-02-23T09:23:14;7.80;99.90
5280;DHT22;2663;53.588;10.010;2024-02-23T09:25:41;7.30;99.90
5280;DHT22;2663;53.588;10.010;2024-02-23T09:28:10;8.00;99.90
5280;DHT22;2663;53.588;10.010;2024-02-23T09:30:38;8.00;99.90
5280;DHT22;2663;53.588;10.010;2024-02-23T09:33:05;8.00;99.90
5280;DHT22;2663;53.588;10.010;2024-02-23T09:35:32;7.90;99.90
5280;DHT22;2663;53.588;10.010;2024-02-23T09:37:59;7.90;99.90
5280;DHT22;2663;53.588;10.010;2024-02-23T09:40:26;8.00;99.90
5280;DHT22;2663;53.588;10.010;2024-02-23T09:42:58;8.10;99.90
5280;DHT22;2663;53.588;10.010;2024-02-23T09:45:25;8.00;99.90
5280;DHT22;2663;53.588;10.010;2024-02-23T09:47:57;8.00;99.90
5280;DHT22;2663;53.588;10.010;2024-02-23T09:50:24;8.10;99.90
5280;DHT22;2663;53.588;10.010;2024-02-23T09:52:52;8.30;99.90
5280;DHT22;2663;53.588;10.010;2024-02-23T09:55:21;8.40;99.90
5280;DHT22;2663;53.588;10.010;2024-02-23T09:57:48;8.30;99.90
5280;DHT22;2663;53.588;10.010;2024-02-23T10:00:18;8.30;99.90
5280;DHT22;2663;53.588;10.010;2024-02-23T10:02:45;8.30;99.90
5280;DHT22;2663;53.588;10.010;2024-02-23T10:05:12;8.30;99.90
5280;DHT22;2663;53.588;10.010;2024-02-23T10:07:40;8.40;99.90
5280;DHT22;2663;53.588;10.010;2024-02-23T10:10:08;9.40;99.90
5280;DHT22;2663;53.588;10.010;2024-02-23T10:12:35;7.00;99.90
5280;DHT22;2663;53.588;10.010;2024-02-23T10:15:03;8.40;99.90
5280;DHT22;2663;53.588;10.010;2024-02-23T10:17:31;8.40;99.90
5280;DHT22;2663;53.588;10.010;2024-02-23T10:20:02;8.50;99.90
5280;DHT22;2663;53.588;10.010;2024-02-23T10:22:31;8.60;99.90
5280;DHT22;2663;53.588;10.010;2024-02-23T10:24:59;8.70;99.90
5280;DHT22;2663;53.588;10.010;2024-02-23T10:27:26;8.80;99.90
5280;DHT22;2663;53.588;10.010;2024-02-23T10:29:53;9.80;99.90
5280;DHT22;2663;53.588;10.010;2024-02-23T10:32:20;8.80;99.90
5280;DHT22;2663;53.588;10.010;2024-02-23T10:34:49;8.60;99.90
5280;DHT22;2663;53.588;10.010;2024-02-23T10:37:17;8.60;99.90
5280;DHT22;2663;53.588;10.010;2024-02-23T10:39:45;8.70;99.90
5280;DHT22;2663;53.588;10.010;2024-02-23T10:42:12;8.80;99.90
5280;DHT22;2663;53.588;10.010;2024-02-23T10:44:41;8.80;99.90
5280;DHT22;2663;53.588;10.010;2024-02-23T10:47:08;8.90;99.90
5280;DHT22;2663;53.588;10.010;2024-02-23T10:49:36;8.90;99.90
5280;DHT22;2663;53.588;10.010;2024-02-23T10:52:04;8.80;99.90
5280;DHT22;2663;53.588;10.010;2024-02-23T10:54:33;8.90;99.90
5280;DHT22;2663;53.588;10.010;2024-02-23T10:57:02;8.90;99.90
5280;DHT22;2663;53.588;10.010;2024-02-23T10:59:28;9.00;99.90
5280;DHT22;2663;53.588;10.010;2024-02-23T11:01:56;8.90;99.90
5280;DHT22;2663;53.588;10.010;2024-02-23T11:04:26;8.90;99.90
5280;DHT22;2663;53.588;10.010;2024-02-23T11:06:55;8.80;99.90
5280;DHT22;2663;53.588;10.010;2024-02-23T11:09:25;8.80;99.90
5280;DHT22;2663;53.588;10.010;2024-02-23T11:12:03;8.90;99.90
5280;DHT22;2663;53.588;10.010;2024-02-23T11:14:31;9.00;99.90
5280;DHT22;2663;53.588;10.010;2024-02-23T11:17:02;9.00;99.90
5280;DHT22;2663;53.588;10.010;2024-02-23T11:19:37;9.10;99.90
5280;DHT22;2663;53.588;10.010;2024-02-23T11:22:05;9.00;99.90
5280;DHT22;2663;53.588;10.010;2024-02-23T11:24:44;9.00;99.90
5280;DHT22;2663;53.588;10.010;2024-02-23T11:27:17;8.90;99.90
5280;DHT22;2663;53.588;10.010;2024-02-23T11:29:48;8.90;99.90
5280;DHT22;2663;53.588;10.010;2024-02-23T11:32:45;8.90;99.90
5280;DHT22;2663;53.588;10.010;2024-02-23T11:35:17;8.90;99.90
5280;DHT22;2663;53.588;10.010;2024-02-23T11:37:52;8.90;99.90
5280;DHT22;2663;53.588;10.010;2024-02-23T11:40:30;9.00;99.90
5280;DHT22;2663;53.588;10.010;2024-02-23T11:42:57;9.00;99.90
5280;DHT22;2663;53.588;10.010;2024-02-23T11:45:28;8.90;99.90
5280;DHT22;2663;53.588;10.010;2024-02-23T11:47:55;8.90;99.90
5280;DHT22;2663;53.588;10.010;2024-02-23T11:50:22;8.90;99.90
5280;DHT22;2663;53.588;10.010;2024-02-23T11:52:49;9.00;99.90
5280;DHT22;2663;53.588;10.010;2024-02-23T11:55:21;9.10;99.90
5280;DHT22;2663;53.588;10.010;2024-02-23T11:57:51;9.10;99.90
5280;DHT22;2663;53.588;10.010;2024-02-23T12:00:31;9.20;99.90
5280;DHT22;2663;53.588;10.010;2024-02-23T12:02:58;9.30;99.90
5280;DHT22;2663;53.588;10.010;2024-02-23T12:05:26;9.20;99.90
5280;DHT22;2663;53.588;10.010;2024-02-23T12:07:53;9.20;99.90
5280;DHT22;2663;53.588;10.010;2024-02-23T12:10:20;9.30;99.90
5280;DHT22;2663;53.588;10.010;2024-02-23T12:12:47;9.30;99.90
5280;DHT22;2663;53.588;10.010;2024-02-23T12:15:15;9.40;99.90
5280;DHT22;2663;53.588;10.010;2024-02-23T12:17:49;9.30;99.90
5280;DHT22;2663;53.588;10.010;2024-02-23T12:20:16;9.20;99.90
5280;DHT22;2663;53.588;10.010;2024-02-23T12:22:43;9.30;99.90
5280;DHT22;2663;53.588;10.010;2024-02-23T12:25:12;9.40;99.90
5280;DHT22;2663;53.588;10.010;2024-02-23T12:27:39;9.50;99.90
5280;DHT22;2663;53.588;10.010;2024-02-23T12:30:12;9.40;99.90
5280;DHT22;2663;53.588;10.010;2024-02-23T12:32:39;9.50;99.90
5280;DHT22;2663;53.588;10.010;2024-02-23T12:35:06;9.40;99.90
5280;DHT22;2663;53.588;10.010;2024-02-23T12:37:36;9.50;99.90
5280;DHT22;2663;53.588;10.010;2024-02-23T12:40:05;9.50;99.90
5280;DHT22;2663;53.588;10.010;2024-02-23T12:42:32;9.30;99.90
5280;DHT22;2663;53.588;10.010;2024-02-23T12:44:59;9.20;99.90
5280;DHT22;2663;53.588;10.010;2024-02-23T12:47:25;9.40;99.90
5280;DHT22;2663;53.588;10.010;2024-02-23T12:49:52;9.40;99.90
5280;DHT22;2663;53.588;10.010;2024-02-23T12:52:19;9.50;99.90
5280;DHT22;2663;53.588;10.010;2024-02-23T12:54:46;9.60;99.90
5280;DHT22;2663;53.588;10.010;2024-02-23T12:57:15;9.60;99.90
5280;DHT22;2663;53.588;10.010;2024-02-23T12:59:42;9.60;99.90
5280;DHT22;2663;53.588;10.010;2024-02-23T13:02:11;9.50;99.90
5280;DHT22;2663;53.588;10.010;2024-02-23T13:04:38;9.50;99.90
5280;DHT22;2663;53.588;10.010;2024-02-23T13:07:05;9.70;99.90
5280;DHT22;2663;53.588;10.010;2024-02-23T13:09:31;9.80;99.90
5280;DHT22;2663;53.588;10.010;2024-02-23T13:11:59;9.80;99.90
5280;DHT22;2663;53.588;10.010;2024-02-23T13:14:26;9.90;99.90
5280;DHT22;2663;53.588;10.010;2024-02-23T13:16:53;9.80;99.90
5280;DHT22;2663;53.588;10.010;2024-02-23T13:19:19;9.90;99.90
5280;DHT22;2663;53.588;10.010;2024-02-23T13:21:46;9.90;99.90
5280;DHT22;2663;53.588;10.010;2024-02-23T13:24:13;9.90;99.90
5280;DHT22;2663;53.588;10.010;2024-02-23T13:26:39;9.70;99.90
5280;DHT22;2663;53.588;10.010;2024-02-23T13:29:07;9.00;99.90
5280;DHT22;2663;53.588;10.010;2024-02-23T13:31:33;9.60;99.90
5280;DHT22;2663;53.588;10.010;2024-02-23T13:34:00;9.70;99.90
5280;DHT22;2663;53.588;10.010;2024-02-23T13:36:30;9.70;99.90
5280;DHT22;2663;53.588;10.010;2024-02-23T13:38:56;9.70;99.90
5280;DHT22;2663;53.588;10.010;2024-02-23T13:41:26;9.80;99.90
5280;DHT22;2663;53.588;10.010;2024-02-23T13:43:53;9.80;99.90
5280;DHT22;2663;53.588;10.010;2024-02-23T13:46:20;9.80;99.90
5280;DHT22;2663;53.588;10.010;2024-02-23T13:49:01;9.80;99.90
5280;DHT22;2663;53.588;10.010;2024-02-23T13:51:28;9.90;99.90
5280;DHT22;2663;53.588;10.010;2024-02-23T13:53:55;9.80;99.90
5280;DHT22;2663;53.588;10.010;2024-02-23T13:56:21;9.70;99.90
5280;DHT22;2663;53.588;10.010;2024-02-23T13:58:51;9.60;99.90
5280;DHT22;2663;53.588;10.010;2024-02-23T14:01:18;9.60;99.90
5280;DHT22;2663;53.588;10.010;2024-02-23T14:03:45;9.60;99.90
5280;DHT22;2663;53.588;10.010;2024-02-23T14:06:12;9.70;99.90
5280;DHT22;2663;53.588;10.010;2024-02-23T14:08:39;9.70;99.90
5280;DHT22;2663;53.588;10.010;2024-02-23T14:11:05;9.70;99.90
5280;DHT22;2663;53.588;10.010;2024-02-23T14:13:33;9.70;99.90
5280;DHT22;2663;53.588;10.010;2024-02-23T14:15:59;9.60;99.90
5280;DHT22;2663;53.588;10.010;2024-02-23T14:18:27;9.70;99.90
5280;DHT22;2663;53.588;10.010;2024-02-23T14:20:54;9.70;99.90
5280;DHT22;2663;53.588;10.010;2024-02-23T14:23:21;9.60;99.90
5280;DHT22;2663;53.588;10.010;2024-02-23T14:25:47;9.80;99.90
5280;DHT22;2663;53.588;10.010;2024-02-23T14:28:14;11.90;99.90
5280;DHT22;2663;53.588;10.010;2024-02-23T14:30:41;10.60;99.90
5280;DHT22;2663;53.588;10.010;2024-02-23T14:33:09;10.50;99.90
5280;DHT22;2663;53.588;10.010;2024-02-23T14:35:36;10.10;99.90
5280;DHT22;2663;53.588;10.010;2024-02-23T14:38:03;10.00;99.90
5280;DHT22;2663;53.588;10.010;2024-02-23T14:40:30;10.00;99.90
5280;DHT22;2663;53.588;10.010;2024-02-23T14:42:56;10.10;99.90
5280;DHT22;2663;53.588;10.010;2024-02-23T14:45:23;10.10;99.90
5280;DHT22;2663;53.588;10.010;2024-02-23T14:47:50;10.00;99.90
5280;DHT22;2663;53.588;10.010;2024-02-23T14:50:17;9.90;99.90
5280;DHT22;2663;53.588;10.010;2024-02-23T14:52:44;10.00;99.90
5280;DHT22;2663;53.588;10.010;2024-02-23T14:55:11;10.00;99.90
5280;DHT22;2663;53.588;10.010;2024-02-23T14:57:38;9.90;99.90
5280;DHT22;2663;53.588;10.010;2024-02-23T15:00:05;9.90;99.90
5280;DHT22;2663;53.588;10.010;2024-02-23T15:02:32;9.90;99.90
5280;DHT22;2663;53.588;10.010;2024-02-23T15:04:59;9.80;99.90
5280;DHT22;2663;53.588;10.010;2024-02-23T15:07:26;9.80;99.90
5280;DHT22;2663;53.588;10.010;2024-02-23T15:09:53;9.30;99.90
5280;DHT22;2663;53.588;10.010;2024-02-23T15:12:19;9.70;99.90
5280;DHT22;2663;53.588;10.010;2024-02-23T15:14:48;9.80;99.90
5280;DHT22;2663;53.588;10.010;2024-02-23T15:17:15;9.90;99.90
5280;DHT22;2663;53.588;10.010;2024-02-23T15:19:42;10.00;99.90
5280;DHT22;2663;53.588;10.010;2024-02-23T15:22:09;10.10;99.90
5280;DHT22;2663;53.588;10.010;2024-02-23T15:24:41;10.20;99.90
5280;DHT22;2663;53.588;10.010;2024-02-23T15:27:08;10.20;99.90
5280;DHT22;2663;53.588;10.010;2024-02-23T15:29:35;10.10;99.90
5280;DHT22;2663;53.588;10.010;2024-02-23T15:32:02;10.10;99.90
5280;DHT22;2663;53.588;10.010;2024-02-23T15:34:29;10.20;99.90
5280;DHT22;2663;53.588;10.010;2024-02-23T15:36:56;10.40;99.90
5280;DHT22;2663;53.588;10.010;2024-02-23T15:39:23;10.40;99.90
5280;DHT22;2663;53.588;10.010;2024-02-23T15:41:50;10.40;99.90
5280;DHT22;2663;53.588;10.010;2024-02-23T15:44:17;10.40;99.90
5280;DHT22;2663;53.588;10.010;2024-02-23T15:46:44;10.30;99.90
5280;DHT22;2663;53.588;10.010;2024-02-23T15:49:12;10.10;99.90
5280;DHT22;2663;53.588;10.010;2024-02-23T15:51:59;10.10;99.90
5280;DHT22;2663;53.588;10.010;2024-02-23T15:54:27;10.20;99.90
5280;DHT22;2663;53.588;10.010;2024-02-23T15:56:56;10.20;99.90
5280;DHT22;2663;53.588;10.010;2024-02-23T15:59:23;10.20;99.90
5280;DHT22;2663;53.588;10.010;2024-02-23T16:01:50;10.30;99.90